createdAt,value
2018-03-22T00:01:10.870Z,2.40
2018-03-22T00:03:38.407Z,3.60
2018-03-22T00:06:05.976Z,2.10
2018-03-22T00:08:34.126Z,3.40
2018-03-22T00:11:01.732Z,2.17
2018-03-22T00:13:29.280Z,2.53
2018-03-22T00:15:56.866Z,2.57
2018-03-22T00:18:25.206Z,2.50
2018-03-22T00:20:52.788Z,2.30
2018-03-22T00:23:20.330Z,2.17
2018-03-22T00:25:47.960Z,3.00
2018-03-22T00:28:15.543Z,3.10
2018-03-22T00:30:43.952Z,2.30
2018-03-22T00:33:11.589Z,2.33
2018-03-22T00:35:39.872Z,3.00
2018-03-22T00:38:07.407Z,2.50
2018-03-22T00:40:35.336Z,5.13
2018-03-22T00:43:03.039Z,2.80
2018-03-22T00:45:30.696Z,3.57
2018-03-22T00:47:58.954Z,2.10
2018-03-22T00:50:27.017Z,3.10
2018-03-22T00:52:55.054Z,2.03
2018-03-22T00:55:22.614Z,3.43
2018-03-22T00:57:50.980Z,2.10
2018-03-22T01:00:19.022Z,3.20
2018-03-22T01:02:46.576Z,2.90
2018-03-22T01:05:14.138Z,2.87
2018-03-22T01:07:42.440Z,3.10
2018-03-22T01:10:09.991Z,2.50
2018-03-22T01:12:38.289Z,3.93
2018-03-22T01:15:05.816Z,2.47
2018-03-22T01:17:34.337Z,2.30
2018-03-22T01:20:01.987Z,3.10
2018-03-22T01:22:29.507Z,2.10
2018-03-22T01:24:57.064Z,3.67
2018-03-22T01:27:24.584Z,2.47
2018-03-22T01:29:52.113Z,3.17
2018-03-22T01:32:19.661Z,2.67
2018-03-22T01:34:47.204Z,3.30
2018-03-22T01:37:14.734Z,2.60
2018-03-22T01:39:42.774Z,3.03
2018-03-22T01:42:10.341Z,2.40
2018-03-22T01:44:37.922Z,2.20
2018-03-22T01:47:06.252Z,2.30
2018-03-22T01:49:33.897Z,2.10
2018-03-22T01:52:02.584Z,3.57
2018-03-22T01:54:30.133Z,2.00
2018-03-22T01:56:57.676Z,3.10
2018-03-22T01:59:25.581Z,2.03
2018-03-22T02:01:53.836Z,3.50
2018-03-22T02:04:21.358Z,2.90
2018-03-22T02:06:48.871Z,3.30
2018-03-22T02:09:17.385Z,2.27
2018-03-22T02:11:44.943Z,2.80
2018-03-22T02:14:13.329Z,2.40
2018-03-22T02:16:40.960Z,2.60
2018-03-22T02:19:09.005Z,2.87
2018-03-22T02:21:36.929Z,2.33
2018-03-22T02:24:04.489Z,3.27
2018-03-22T02:26:32.133Z,2.00
2018-03-22T02:28:59.752Z,3.10
2018-03-22T02:31:28.121Z,2.40
2018-03-22T02:33:55.713Z,3.13
2018-03-22T02:36:23.734Z,2.33
2018-03-22T02:38:51.293Z,3.37
2018-03-22T02:41:18.828Z,2.73
2018-03-22T02:43:46.395Z,3.03
2018-03-22T02:46:13.919Z,2.60
2018-03-22T02:48:42.306Z,2.63
2018-03-22T02:51:10.317Z,2.60
2018-03-22T02:53:37.957Z,2.17
2018-03-22T02:56:05.506Z,2.90
2018-03-22T02:58:33.781Z,2.30
2018-03-22T03:01:02.159Z,3.03
2018-03-22T03:03:29.690Z,2.37
2018-03-22T03:05:57.257Z,3.00
2018-03-22T03:08:25.375Z,2.57
2018-03-22T03:10:52.941Z,3.63
2018-03-22T03:13:21.310Z,2.50
2018-03-22T03:15:49.300Z,3.40
2018-03-22T03:18:17.865Z,2.60
2018-03-22T03:20:45.443Z,3.30
2018-03-22T03:23:13.088Z,2.60
2018-03-22T03:25:40.849Z,2.90
2018-03-22T03:28:08.448Z,2.27
2018-03-22T03:30:36.051Z,3.00
2018-03-22T03:33:04.105Z,3.13
2018-03-22T03:35:31.703Z,2.23
2018-03-22T03:37:59.316Z,3.30
2018-03-22T03:40:26.918Z,2.73
2018-03-22T03:42:54.501Z,3.50
2018-03-22T03:45:22.163Z,2.90
2018-03-22T03:47:50.335Z,4.40
2018-03-22T03:50:18.518Z,2.73
2018-03-22T03:52:46.889Z,3.40
2018-03-22T03:55:14.538Z,2.53
2018-03-22T03:57:42.825Z,4.27
2018-03-22T04:00:10.933Z,2.60
2018-03-22T04:02:39.206Z,2.47
2018-03-22T04:05:07.629Z,2.73
2018-03-22T04:07:36.825Z,2.30
2018-03-22T04:10:04.544Z,3.27
2018-03-22T04:12:33.071Z,2.53
2018-03-22T04:15:01.534Z,2.60
2018-03-22T04:17:29.138Z,3.60
2018-03-22T04:19:57.824Z,2.20
2018-03-22T04:22:25.430Z,3.03
2018-03-22T04:24:53.060Z,2.43
2018-03-22T04:27:20.656Z,3.13
2018-03-22T04:29:48.293Z,3.37
2018-03-22T04:32:16.644Z,2.30
2018-03-22T04:34:44.276Z,3.60
2018-03-22T04:37:11.826Z,2.73
2018-03-22T04:39:39.629Z,2.53
2018-03-22T04:42:07.187Z,3.27
2018-03-22T04:44:34.851Z,2.60
2018-03-22T04:47:02.588Z,4.13
2018-03-22T04:49:30.120Z,2.37
2018-03-22T04:51:58.239Z,3.37
2018-03-22T04:54:25.767Z,2.50
2018-03-22T04:56:53.364Z,3.60
2018-03-22T04:59:21.628Z,2.53
2018-03-22T05:01:49.588Z,3.10
2018-03-22T05:04:17.123Z,2.57
2018-03-22T05:06:44.650Z,2.90
2018-03-22T05:09:12.823Z,3.00
2018-03-22T05:11:40.362Z,2.57
2018-03-22T05:14:08.472Z,2.77
2018-03-22T05:16:36.037Z,2.50
2018-03-22T05:19:04.099Z,3.17
2018-03-22T05:21:31.632Z,2.43
2018-03-22T05:23:59.170Z,3.57
2018-03-22T05:26:26.739Z,2.60
2018-03-22T05:28:54.967Z,3.87
2018-03-22T05:31:22.529Z,2.50
2018-03-22T05:33:50.072Z,3.57
2018-03-22T05:36:17.696Z,2.60
2018-03-22T05:38:45.284Z,2.90
2018-03-22T05:41:12.814Z,2.50
2018-03-22T05:43:40.437Z,3.20
2018-03-22T05:46:07.984Z,2.87
2018-03-22T05:48:36.180Z,2.90
2018-03-22T05:51:04.284Z,3.33
2018-03-22T05:53:31.915Z,2.43
2018-03-22T05:56:00.433Z,3.60
2018-03-22T05:58:29.682Z,2.70
2018-03-22T06:00:57.969Z,3.60
2018-03-22T06:03:25.498Z,2.33
2018-03-22T06:05:53.140Z,3.53
2018-03-22T06:08:21.475Z,2.97
2018-03-22T06:10:49.032Z,3.60
2018-03-22T06:13:17.189Z,2.70
2018-03-22T06:15:45.430Z,2.90
2018-03-22T06:18:13.986Z,2.50
2018-03-22T06:20:41.620Z,2.60
2018-03-22T06:23:09.157Z,2.97
2018-03-22T06:25:37.199Z,2.50
2018-03-22T06:28:04.840Z,3.47
2018-03-22T06:30:32.463Z,2.43
2018-03-22T06:33:00.041Z,4.97
2018-03-22T06:35:27.560Z,2.10
2018-03-22T06:37:55.076Z,3.47
2018-03-22T06:40:22.678Z,2.90
2018-03-22T06:42:50.232Z,3.70
2018-03-22T06:45:17.751Z,2.80
2018-03-22T06:47:45.304Z,3.03
2018-03-22T06:50:13.740Z,3.00
2018-03-22T06:52:42.275Z,2.83
2018-03-22T06:55:09.802Z,3.10
2018-03-22T06:57:37.838Z,2.73
2018-03-22T07:00:06.026Z,3.30
2018-03-22T07:02:34.254Z,2.77
2018-03-22T07:05:01.818Z,3.60
2018-03-22T07:07:29.821Z,2.40
2018-03-22T07:09:57.373Z,3.67
2018-03-22T07:12:24.897Z,2.73
2018-03-22T07:14:52.951Z,4.10
2018-03-22T07:17:20.482Z,2.97
2018-03-22T07:19:48.973Z,3.63
2018-03-22T07:22:16.472Z,2.90
2018-03-22T07:24:44.544Z,3.03
2018-03-22T07:27:12.210Z,3.07
2018-03-22T07:29:39.741Z,2.73
2018-03-22T07:32:07.346Z,3.23
2018-03-22T07:34:35.094Z,2.50
2018-03-22T07:37:03.341Z,3.23
2018-03-22T07:39:30.872Z,3.40
2018-03-22T07:41:58.387Z,2.90
2018-03-22T07:44:31.626Z,3.47
2018-03-22T07:46:59.165Z,2.40
2018-03-22T07:49:26.748Z,3.20
2018-03-22T07:51:55.107Z,2.20
2018-03-22T07:54:22.659Z,3.20
2018-03-22T07:56:50.183Z,2.30
2018-03-22T07:59:18.527Z,3.47
2018-03-22T08:01:46.671Z,2.27
2018-03-22T08:04:14.200Z,2.97
2018-03-22T08:06:41.740Z,2.50
2018-03-22T08:09:10.022Z,2.60
2018-03-22T08:11:37.580Z,2.83
2018-03-22T08:14:05.784Z,2.10
2018-03-22T08:16:33.452Z,2.83
2018-03-22T08:19:01.679Z,2.23
2018-03-22T08:21:29.744Z,3.10
2018-03-22T08:23:57.276Z,2.60
2018-03-22T08:26:24.803Z,2.93
2018-03-22T08:28:52.367Z,2.30
2018-03-22T08:31:19.916Z,3.67
2018-03-22T08:33:47.448Z,2.47
2018-03-22T08:36:15.056Z,2.70
2018-03-22T08:38:42.604Z,2.30
2018-03-22T08:41:10.165Z,2.43
2018-03-22T08:43:37.724Z,2.27
2018-03-22T08:46:05.268Z,2.00
2018-03-22T08:48:32.896Z,3.13
2018-03-22T08:51:01.100Z,3.17
2018-03-22T08:53:28.613Z,4.23
2018-03-22T08:55:56.149Z,1.93
2018-03-22T08:58:24.369Z,3.80
2018-03-22T09:00:52.772Z,2.00
2018-03-22T09:03:20.330Z,2.80
2018-03-22T09:05:47.867Z,2.10
2018-03-22T09:08:16.116Z,2.77
2018-03-22T09:10:43.640Z,2.17
2018-03-22T09:13:11.794Z,2.53
2018-03-22T09:15:39.317Z,2.27
2018-03-22T09:18:07.363Z,2.00
2018-03-22T09:20:35.540Z,2.63
2018-03-22T09:23:03.184Z,1.97
2018-03-22T09:25:30.718Z,4.03
2018-03-22T09:27:58.279Z,2.00
2018-03-22T09:30:25.819Z,2.73
2018-03-22T09:32:53.340Z,1.83
2018-03-22T09:35:20.924Z,2.70
2018-03-22T09:37:48.460Z,1.73
2018-03-22T09:40:16.069Z,3.63
2018-03-22T09:42:43.664Z,1.90
2018-03-22T09:45:11.332Z,2.30
2018-03-22T09:47:38.853Z,2.03
2018-03-22T09:50:06.874Z,1.70
2018-03-22T09:52:34.940Z,2.30
2018-03-22T09:55:02.638Z,2.00
2018-03-22T09:57:30.692Z,2.40
2018-03-22T09:59:59.037Z,1.90
2018-03-22T10:02:27.073Z,2.47
2018-03-22T10:04:54.594Z,2.00
2018-03-22T10:07:23.174Z,2.77
2018-03-22T10:09:50.720Z,2.20
2018-03-22T10:12:18.269Z,2.73
2018-03-22T10:14:46.312Z,1.83
2018-03-22T10:17:14.231Z,2.67
2018-03-22T10:19:42.306Z,2.10
2018-03-22T10:22:09.838Z,2.20
2018-03-22T10:24:37.370Z,2.30
2018-03-22T10:27:05.036Z,1.83
2018-03-22T10:29:32.608Z,3.20
2018-03-22T10:32:00.150Z,2.10
2018-03-22T10:34:27.828Z,3.10
2018-03-22T10:36:55.345Z,2.23
2018-03-22T10:39:22.873Z,3.50
2018-03-22T10:41:50.429Z,2.40
2018-03-22T10:44:18.987Z,2.73
2018-03-22T10:46:46.515Z,2.40
2018-03-22T10:49:14.070Z,2.97
2018-03-22T10:51:42.520Z,2.33
2018-03-22T10:54:10.069Z,3.00
2018-03-22T10:56:37.596Z,2.73
2018-03-22T10:59:05.638Z,2.67
2018-03-22T11:01:40.290Z,3.43
2018-03-22T11:04:07.884Z,3.23
2018-03-22T11:06:36.371Z,3.57
2018-03-22T11:09:04.608Z,3.30
2018-03-22T11:11:32.370Z,4.10
2018-03-22T11:14:00.568Z,3.10
2018-03-22T11:16:28.098Z,4.20
2018-03-22T11:18:56.259Z,3.57
2018-03-22T11:21:23.786Z,5.93
2018-03-22T11:23:51.333Z,3.17
2018-03-22T11:26:18.896Z,3.40
2018-03-22T11:28:46.451Z,2.37
2018-03-22T11:31:13.980Z,2.77
2018-03-22T11:33:41.571Z,2.83
2018-03-22T11:36:09.092Z,2.90
2018-03-22T11:38:36.636Z,2.50
2018-03-22T11:41:04.345Z,2.60
2018-03-22T11:43:32.362Z,2.97
2018-03-22T11:45:59.927Z,2.27
2018-03-22T11:48:27.524Z,3.20
2018-03-22T11:50:55.968Z,2.30
2018-03-22T11:53:24.396Z,2.80
2018-03-22T11:55:51.921Z,2.20
2018-03-22T11:58:20.152Z,3.10
2018-03-22T12:00:48.460Z,2.10
2018-03-22T12:03:15.988Z,2.67
2018-03-22T12:05:43.520Z,2.20
2018-03-22T12:08:11.752Z,2.60
2018-03-22T12:10:39.278Z,2.83
2018-03-22T12:13:08.233Z,2.40
2018-03-22T12:15:35.753Z,2.60
2018-03-22T12:18:03.859Z,2.60
2018-03-22T12:20:31.383Z,3.47
2018-03-22T12:22:58.907Z,2.00
2018-03-22T12:25:26.485Z,3.13
2018-03-22T12:27:53.992Z,2.50
2018-03-22T12:30:21.532Z,3.27
2018-03-22T12:32:49.080Z,2.30
2018-03-22T12:35:16.626Z,2.43
2018-03-22T12:37:44.136Z,2.07
2018-03-22T12:40:11.693Z,2.63
2018-03-22T12:42:39.340Z,2.57
2018-03-22T12:45:06.900Z,2.37
2018-03-22T12:47:34.664Z,2.70
2018-03-22T12:50:03.328Z,2.50
2018-03-22T12:52:31.386Z,2.50
2018-03-22T12:54:58.905Z,1.93
2018-03-22T12:57:27.199Z,3.37
2018-03-22T12:59:55.387Z,2.33
2018-03-22T13:02:23.529Z,3.00
2018-03-22T13:04:51.056Z,2.40
2018-03-22T13:07:19.204Z,2.90
2018-03-22T13:09:47.383Z,1.93
2018-03-22T13:12:14.911Z,2.33
2018-03-22T13:14:43.120Z,1.87
2018-03-22T13:17:10.674Z,2.20
2018-03-22T13:19:38.762Z,2.70
2018-03-22T13:22:06.291Z,2.17
2018-03-22T13:24:33.996Z,3.37
2018-03-22T13:27:01.560Z,2.50
2018-03-22T13:29:29.071Z,3.40
2018-03-22T13:31:56.583Z,2.70
2018-03-22T13:34:24.255Z,3.23
2018-03-22T13:36:51.790Z,2.27
2018-03-22T13:39:19.321Z,2.90
2018-03-22T13:41:46.886Z,1.80
2018-03-22T13:44:14.476Z,2.33
2018-03-22T13:46:42.079Z,1.93
2018-03-22T13:49:09.641Z,2.27
2018-03-22T13:51:38.044Z,2.53
2018-03-22T13:54:05.620Z,1.40
2018-03-22T13:56:33.523Z,2.40
2018-03-22T13:59:01.973Z,2.17
2018-03-22T14:01:30.741Z,3.73
2018-03-22T14:03:58.270Z,2.10
2018-03-22T14:06:25.792Z,5.27
2018-03-22T14:08:54.199Z,2.50
2018-03-22T14:11:21.788Z,3.67
2018-03-22T14:13:49.779Z,2.40
2018-03-22T14:16:17.351Z,3.30
2018-03-22T14:18:45.522Z,2.70
2018-03-22T14:21:13.060Z,2.70
2018-03-22T14:23:40.577Z,2.47
2018-03-22T14:26:08.180Z,2.73
2018-03-22T14:28:35.739Z,3.20
2018-03-22T14:31:03.657Z,2.27
2018-03-22T14:33:31.230Z,2.90
2018-03-22T14:35:59.708Z,2.53
2018-03-22T14:38:27.232Z,5.03
2018-03-22T14:40:54.768Z,2.40
2018-03-22T14:43:22.338Z,4.23
2018-03-22T14:45:49.855Z,2.37
2018-03-22T14:48:17.468Z,3.30
2018-03-22T14:50:45.785Z,2.43
2018-03-22T14:53:14.085Z,3.70
2018-03-22T14:55:41.608Z,2.30
2018-03-22T14:58:09.549Z,2.53
2018-03-22T15:00:38.218Z,2.80
2018-03-22T15:03:05.765Z,3.30
2018-03-22T15:05:34.184Z,3.10
2018-03-22T15:08:02.171Z,3.37
2018-03-22T15:10:29.989Z,3.00
2018-03-22T15:12:58.252Z,2.67
2018-03-22T15:15:25.791Z,3.70
2018-03-22T15:17:54.084Z,3.40
2018-03-22T15:20:21.598Z,3.50
2018-03-22T15:22:49.139Z,2.80
2018-03-22T15:25:16.697Z,3.53
2018-03-22T15:27:44.213Z,3.07
2018-03-22T15:30:12.009Z,3.20
2018-03-22T15:32:39.560Z,2.83
2018-03-22T15:35:07.073Z,2.43
2018-03-22T15:37:35.477Z,3.47
2018-03-22T15:40:03.545Z,2.70
2018-03-22T15:42:31.279Z,3.03
2018-03-22T15:44:58.798Z,2.70
2018-03-22T15:47:26.343Z,3.40
2018-03-22T15:49:53.877Z,2.77
2018-03-22T15:52:21.972Z,3.40
2018-03-22T15:54:49.492Z,2.30
2018-03-22T15:57:17.044Z,3.17
2018-03-22T15:59:45.388Z,2.70
2018-03-22T16:02:13.525Z,2.87
2018-03-22T16:04:41.148Z,2.67
2018-03-22T16:07:08.688Z,2.37
2018-03-22T16:09:36.679Z,2.77
2018-03-22T16:12:04.393Z,2.43
2018-03-22T16:14:32.564Z,2.50
2018-03-22T16:17:00.141Z,2.90
2018-03-22T16:19:28.347Z,2.50
2018-03-22T16:21:56.291Z,3.17
2018-03-22T16:24:23.816Z,2.80
2018-03-22T16:26:51.362Z,4.60
2018-03-22T16:29:18.922Z,2.70
2018-03-22T16:31:46.444Z,4.37
2018-03-22T16:34:13.963Z,2.50
2018-03-22T16:36:41.820Z,3.07
2018-03-22T16:39:09.353Z,2.27
2018-03-22T16:41:37.176Z,4.07
2018-03-22T16:44:05.619Z,1.83
2018-03-22T16:46:34.048Z,2.50
2018-03-22T16:49:01.570Z,2.77
2018-03-22T16:51:29.910Z,2.37
2018-03-22T16:53:57.440Z,2.73
2018-03-22T16:56:24.965Z,2.40
2018-03-22T16:58:53.231Z,4.33
2018-03-22T17:01:22.443Z,2.53
2018-03-22T17:03:49.964Z,3.67
2018-03-22T17:06:17.488Z,2.73
2018-03-22T17:08:45.912Z,4.40
2018-03-22T17:11:13.437Z,3.00
2018-03-22T17:13:41.551Z,3.40
2018-03-22T17:16:09.108Z,2.63
2018-03-22T17:18:37.380Z,3.73
2018-03-22T17:21:05.036Z,2.30
2018-03-22T17:23:32.829Z,2.63
2018-03-22T17:26:00.491Z,2.93
2018-03-22T17:28:28.262Z,2.80
2018-03-22T17:30:55.816Z,3.00
2018-03-22T17:33:23.503Z,2.70
2018-03-22T17:35:51.304Z,3.53
2018-03-22T17:38:18.839Z,2.77
2018-03-22T17:40:46.421Z,4.10
2018-03-22T17:43:13.997Z,3.07
2018-03-22T17:45:41.548Z,3.83
2018-03-22T17:48:09.100Z,2.90
2018-03-22T17:50:37.320Z,3.83
2018-03-22T17:53:05.352Z,2.97
2018-03-22T17:55:33.197Z,3.23
2018-03-22T17:58:01.327Z,3.40
2018-03-22T18:00:29.874Z,3.70
2018-03-22T18:02:57.423Z,3.50
2018-03-22T18:05:25.675Z,3.40
2018-03-22T18:07:53.749Z,4.30
2018-03-22T18:10:21.283Z,3.57
2018-03-22T18:12:49.599Z,4.70
2018-03-22T18:15:17.170Z,3.53
2018-03-22T18:17:45.288Z,6.10
2018-03-22T18:20:12.858Z,4.40
2018-03-22T18:22:40.496Z,5.83
2018-03-22T18:25:08.070Z,4.60
2018-03-22T18:27:35.634Z,5.30
2018-03-22T18:30:03.427Z,4.77
2018-03-22T18:32:31.009Z,4.60
2018-03-22T18:34:58.550Z,4.93
2018-03-22T18:37:26.122Z,4.73
2018-03-22T18:39:53.733Z,6.47
2018-03-22T18:42:21.500Z,4.97
2018-03-22T18:44:49.064Z,6.70
2018-03-22T18:47:16.615Z,4.60
2018-03-22T18:49:44.184Z,6.87
2018-03-22T18:52:12.623Z,4.43
2018-03-22T18:54:41.353Z,4.50
2018-03-22T18:57:08.876Z,4.40
2018-03-22T18:59:37.651Z,4.70
2018-03-22T19:02:06.348Z,4.87
2018-03-22T19:04:33.972Z,4.80
2018-03-22T19:07:01.550Z,5.30
2018-03-22T19:09:29.677Z,5.27
2018-03-22T19:11:57.236Z,5.97
2018-03-22T19:14:25.357Z,5.90
2018-03-22T19:16:52.880Z,6.63
2018-03-22T19:19:21.231Z,5.93
2018-03-22T19:21:48.893Z,7.57
2018-03-22T19:24:16.355Z,6.23
2018-03-22T19:26:43.924Z,7.20
2018-03-22T19:29:11.473Z,5.97
2018-03-22T19:31:39.058Z,6.77
2018-03-22T19:34:06.660Z,6.23
2018-03-22T19:36:35.130Z,5.70
2018-03-22T19:39:02.670Z,5.43
2018-03-22T19:41:30.256Z,5.47
2018-03-22T19:43:58.336Z,5.43
2018-03-22T19:46:25.884Z,5.37
2018-03-22T19:48:53.413Z,5.90
2018-03-22T19:51:21.455Z,6.43
2018-03-22T19:53:49.522Z,7.13
2018-03-22T19:56:17.107Z,6.07
2018-03-22T19:58:45.217Z,5.43
2018-03-22T20:01:13.367Z,6.23
2018-03-22T20:03:41.097Z,5.20
2018-03-22T20:06:08.637Z,8.20
2018-03-22T20:08:36.584Z,4.73
2018-03-22T20:11:04.172Z,5.07
2018-03-22T20:13:32.572Z,4.07
2018-03-22T20:16:00.222Z,4.40
2018-03-22T20:18:28.160Z,3.90
2018-03-22T20:20:55.824Z,4.60
2018-03-22T20:23:23.375Z,4.60
2018-03-22T20:25:50.946Z,4.33
2018-03-22T20:28:18.470Z,5.03
2018-03-22T20:30:45.988Z,4.00
2018-03-22T20:33:13.586Z,5.67
2018-03-22T20:35:41.162Z,4.67
2018-03-22T20:38:08.707Z,5.67
2018-03-22T20:40:36.273Z,4.20
2018-03-22T20:43:04.704Z,5.53
2018-03-22T20:45:33.874Z,4.90
2018-03-22T20:48:01.436Z,5.77
2018-03-22T20:50:29.626Z,5.37
2018-03-22T20:52:57.762Z,5.70
2018-03-22T20:55:25.342Z,5.67
2018-03-22T20:57:53.556Z,5.63
2018-03-22T21:00:22.205Z,6.27
2018-03-22T21:02:49.952Z,6.03
2018-03-22T21:05:17.541Z,6.13
2018-03-22T21:07:46.690Z,5.67
2018-03-22T21:10:14.288Z,6.40
2018-03-22T21:12:42.745Z,6.33
2018-03-22T21:15:10.313Z,6.70
2018-03-22T21:17:38.701Z,5.87
2018-03-22T21:20:06.344Z,6.70
2018-03-22T21:22:34.153Z,6.07
2018-03-22T21:25:01.954Z,7.17
2018-03-22T21:27:29.527Z,6.47
2018-03-22T21:29:57.084Z,6.63
2018-03-22T21:32:24.672Z,6.37
2018-03-22T21:34:53.673Z,6.33
2018-03-22T21:37:21.228Z,6.37
2018-03-22T21:39:48.785Z,6.93
2018-03-22T21:42:16.360Z,7.53
2018-03-22T21:44:44.661Z,6.10
2018-03-22T21:47:24.006Z,8.10
2018-03-22T21:49:52.248Z,6.27
2018-03-22T21:52:32.509Z,7.20
2018-03-22T21:55:01.522Z,8.60
2018-03-22T21:57:29.782Z,6.00
2018-03-22T21:59:57.925Z,7.00
2018-03-22T22:02:26.218Z,6.43
2018-03-22T22:04:53.842Z,7.57
2018-03-22T22:07:22.900Z,9.07
2018-03-22T22:09:50.699Z,7.20
2018-03-22T22:12:18.336Z,9.03
2018-03-22T22:14:46.491Z,7.50
2018-03-22T22:17:14.063Z,9.00
2018-03-22T22:19:42.511Z,8.67
2018-03-22T22:22:10.077Z,10.97
2018-03-22T22:24:37.652Z,9.50
2018-03-22T22:27:05.348Z,11.33
2018-03-22T22:29:33.705Z,8.40
2018-03-22T22:32:01.290Z,9.00
2018-03-22T22:34:28.947Z,8.97
2018-03-22T22:36:56.541Z,9.70
2018-03-22T22:39:24.203Z,10.00
2018-03-22T22:41:51.830Z,9.37
2018-03-22T22:44:20.003Z,9.87
2018-03-22T22:46:48.269Z,10.10
2018-03-22T22:49:15.838Z,10.57
2018-03-22T22:51:44.420Z,8.93
2018-03-22T22:54:12.052Z,9.70
2018-03-22T22:56:39.626Z,9.80
2018-03-22T22:59:07.916Z,11.47
2018-03-22T23:01:36.293Z,9.93
2018-03-22T23:04:04.131Z,10.07
2018-03-22T23:06:31.693Z,9.17
2018-03-22T23:08:59.953Z,9.97
2018-03-22T23:11:27.524Z,9.93
2018-03-22T23:13:56.655Z,9.73
2018-03-22T23:16:24.224Z,9.88
2018-03-22T23:18:52.599Z,10.07
2018-03-22T23:21:20.658Z,11.12
2018-03-22T23:23:48.296Z,9.70
2018-03-22T23:26:15.943Z,10.73
2018-03-22T23:28:43.606Z,10.57
2018-03-22T23:31:11.309Z,12.33
2018-03-22T23:33:38.934Z,10.17
2018-03-22T23:36:06.718Z,11.07
2018-03-22T23:38:35.135Z,9.80
2018-03-22T23:41:03.068Z,11.13
2018-03-22T23:43:31.484Z,10.40
2018-03-22T23:45:59.049Z,10.73
2018-03-22T23:48:26.581Z,9.40
2018-03-22T23:50:54.711Z,10.57
2018-03-22T23:53:22.812Z,11.67
2018-03-22T23:55:50.443Z,10.60
2018-03-22T23:58:18.781Z,12.17
